createdAt,value
2019-05-13T00:04:18.901Z,4.62
2019-05-13T00:09:40.829Z,3.75
2019-05-13T00:15:03.761Z,4.87
2019-05-13T00:20:25.260Z,5.33
2019-05-13T00:25:47.231Z,4.10
2019-05-13T00:31:08.901Z,4.83
2019-05-13T00:36:30.871Z,4.80
2019-05-13T00:41:53.182Z,4.42
2019-05-13T00:47:14.715Z,4.12
2019-05-13T00:52:36.636Z,4.77
2019-05-13T00:57:58.170Z,4.05
2019-05-13T01:03:19.913Z,4.75
2019-05-13T01:08:48.625Z,4.03
2019-05-13T01:14:10.478Z,6.92
2019-05-13T01:19:34.126Z,5.45
2019-05-13T01:24:55.728Z,5.03
2019-05-13T01:30:18.390Z,5.40
2019-05-13T01:35:40.207Z,7.55
2019-05-13T01:41:04.335Z,4.40
2019-05-13T01:46:25.657Z,3.95
2019-05-13T01:51:47.057Z,5.70
2019-05-13T01:57:08.930Z,4.83
2019-05-13T02:02:30.572Z,4.83
2019-05-13T02:07:59.623Z,5.40
2019-05-13T02:13:15.710Z,5.12
2019-05-13T02:18:37.162Z,3.80
2019-05-13T02:23:58.713Z,6.37
2019-05-13T02:29:20.522Z,5.80
2019-05-13T02:34:43.744Z,4.45
2019-05-13T02:40:06.154Z,7.60
2019-05-13T02:45:28.219Z,6.33
2019-05-13T02:50:52.888Z,5.95
2019-05-13T02:56:14.130Z,6.67
2019-05-13T03:01:35.477Z,6.80
2019-05-13T03:06:57.524Z,7.22
2019-05-13T03:12:19.022Z,10.68
2019-05-13T03:18:03.186Z,6.97
2019-05-13T03:23:25.278Z,9.10
2019-05-13T03:28:47.067Z,6.95
2019-05-13T03:34:14.917Z,6.08
2019-05-13T03:39:34.247Z,9.28
2019-05-13T03:44:57.627Z,4.97
2019-05-13T03:50:22.324Z,7.20
2019-05-13T03:55:43.783Z,4.95
2019-05-13T04:01:06.043Z,6.25
2019-05-13T04:06:27.611Z,7.40
2019-05-13T04:11:52.497Z,5.62
2019-05-13T04:17:13.728Z,6.28
2019-05-13T04:22:36.069Z,8.83
2019-05-13T04:27:58.087Z,6.30
2019-05-13T04:33:22.615Z,5.08
2019-05-13T04:38:44.679Z,8.45
2019-05-13T04:44:06.772Z,8.58
2019-05-13T04:49:28.581Z,6.17
2019-05-13T04:54:52.788Z,6.35
2019-05-13T05:00:13.974Z,5.87
2019-05-13T05:06:07.303Z,7.05
2019-05-13T05:12:04.697Z,5.87
2019-05-13T05:18:11.678Z,7.22
2019-05-13T05:23:59.247Z,9.13
2019-05-13T05:29:42.224Z,11.30
2019-05-13T05:35:17.344Z,14.80
2019-05-13T05:57:26.510Z,15.32
2019-05-13T06:02:52.968Z,15.38
2019-05-13T06:08:13.688Z,13.08
2019-05-13T06:13:37.891Z,15.08
2019-05-13T06:19:01.457Z,14.75
2019-05-13T06:24:26.651Z,13.58
2019-05-13T06:29:49.300Z,14.35
2019-05-13T06:35:11.642Z,14.78
2019-05-13T06:40:33.787Z,15.00
2019-05-13T06:45:55.773Z,13.80
2019-05-13T06:51:17.588Z,13.62
2019-05-13T06:56:39.302Z,15.20
2019-05-13T07:02:02.113Z,14.00
2019-05-13T07:07:24.551Z,13.05
2019-05-13T07:12:46.072Z,13.75
2019-05-13T07:18:07.780Z,12.10
2019-05-13T07:23:31.891Z,16.07
2019-05-13T07:28:53.468Z,15.40
2019-05-13T07:34:15.583Z,12.00
2019-05-13T07:39:37.829Z,11.68
2019-05-13T07:45:01.442Z,12.10
2019-05-13T07:50:23.265Z,9.95
2019-05-13T07:55:45.188Z,10.80
2019-05-13T08:01:07.239Z,9.48
2019-05-13T08:06:32.140Z,10.13
2019-05-13T08:12:14.410Z,9.00
2019-05-13T08:17:35.088Z,9.68
2019-05-13T08:22:56.998Z,7.75
2019-05-13T08:28:22.396Z,9.38
2019-05-13T08:33:44.384Z,7.83
2019-05-13T08:39:07.899Z,7.22
2019-05-13T08:44:32.023Z,7.47
2019-05-13T08:49:56.623Z,11.10
2019-05-13T08:55:18.259Z,8.90
2019-05-13T09:00:52.953Z,5.67
2019-05-13T09:06:14.506Z,8.60
2019-05-13T09:11:36.471Z,6.00
2019-05-13T09:16:58.535Z,7.17
2019-05-13T09:22:21.337Z,7.87
2019-05-13T09:27:43.115Z,8.58
2019-05-13T09:33:04.850Z,7.08
2019-05-13T09:38:26.576Z,6.10
2019-05-13T09:43:48.008Z,7.62
2019-05-13T09:49:15.740Z,6.25
2019-05-13T09:54:33.437Z,8.03
2019-05-13T09:59:55.160Z,8.80
2019-05-13T10:05:16.581Z,7.28
2019-05-13T10:10:38.608Z,5.87
2019-05-13T10:16:00.203Z,9.65
2019-05-13T10:21:22.068Z,6.33
2019-05-13T10:26:44.145Z,7.45
2019-05-13T10:32:06.692Z,7.22
2019-05-13T10:37:28.440Z,5.80
2019-05-13T10:42:52.225Z,7.70
2019-05-13T10:48:13.609Z,7.25
2019-05-13T10:53:35.567Z,7.15
2019-05-13T10:58:57.382Z,7.12
2019-05-13T11:04:18.626Z,8.78
2019-05-13T11:09:41.850Z,7.40
2019-05-13T11:15:04.413Z,9.68
2019-05-13T11:20:26.400Z,7.47
2019-05-13T11:25:48.295Z,7.12
2019-05-13T11:31:09.919Z,9.03
2019-05-13T11:36:33.364Z,5.85
2019-05-13T11:41:55.007Z,6.83
2019-05-13T11:47:16.903Z,7.28
2019-05-13T11:52:38.743Z,6.72
2019-05-13T11:58:02.981Z,6.15
2019-05-13T12:03:23.806Z,7.17
2019-05-13T12:08:51.003Z,7.08
2019-05-13T12:14:34.755Z,7.05
2019-05-13T12:19:32.700Z,8.18
2019-05-13T12:24:53.932Z,7.97
2019-05-13T12:30:16.279Z,11.48
2019-05-13T12:35:38.437Z,8.78
2019-05-13T12:41:03.855Z,11.22
2019-05-13T12:46:24.644Z,9.70
2019-05-13T12:51:46.917Z,9.18
2019-05-13T12:57:13.081Z,11.00
2019-05-13T13:02:32.736Z,8.88
2019-05-13T13:08:16.085Z,9.15
2019-05-13T13:13:18.324Z,9.83
2019-05-13T13:39:43.191Z,10.25
2019-05-13T13:45:06.399Z,10.98
2019-05-13T13:50:28.544Z,10.25
2019-05-13T13:55:55.514Z,9.80
2019-05-13T14:01:19.886Z,12.05
2019-05-13T14:12:02.009Z,11.95
2019-05-13T14:17:23.752Z,10.88
2019-05-13T14:22:45.423Z,13.25
2019-05-13T14:28:07.078Z,12.03
2019-05-13T14:33:32.504Z,13.30
2019-05-13T14:38:53.034Z,15.05
2019-05-13T14:44:14.705Z,11.05
2019-05-13T14:49:36.502Z,10.65
2019-05-13T14:54:57.937Z,12.45
2019-05-13T15:00:22.103Z,10.98
2019-05-13T15:05:43.400Z,14.65
2019-05-13T15:11:04.844Z,11.15
2019-05-13T15:16:26.930Z,13.98
2019-05-13T15:21:48.635Z,11.85
2019-05-13T15:27:10.245Z,12.37
2019-05-13T15:32:32.721Z,13.62
2019-05-13T15:37:54.072Z,13.22
2019-05-13T15:43:15.563Z,14.53
2019-05-13T15:48:37.425Z,14.78
2019-05-13T15:54:02.225Z,14.05
2019-05-13T15:59:22.948Z,15.83
2019-05-13T16:04:52.640Z,15.05
2019-05-13T16:10:11.116Z,15.83
2019-05-13T16:15:32.494Z,14.65
2019-05-13T16:20:54.213Z,13.60
2019-05-13T16:26:15.882Z,15.38
2019-05-13T16:31:37.758Z,15.05
2019-05-13T16:37:01.608Z,16.37
2019-05-13T16:42:23.423Z,15.63
2019-05-13T16:47:56.561Z,17.27
2019-05-13T16:53:08.608Z,18.12
2019-05-13T16:58:32.501Z,17.73
2019-05-13T17:03:54.002Z,19.42
2019-05-13T17:09:16.000Z,18.20
2019-05-13T17:14:37.489Z,17.87
2019-05-13T17:19:59.465Z,21.75
2019-05-13T17:25:20.705Z,25.62
2019-05-13T17:30:42.678Z,32.25
2019-05-13T17:36:04.329Z,20.23
2019-05-13T17:41:26.444Z,22.70
2019-05-13T17:46:47.988Z,22.77
2019-05-13T17:52:11.357Z,21.55
2019-05-13T17:57:33.209Z,20.37
2019-05-13T18:02:54.990Z,21.42
2019-05-13T18:08:16.565Z,22.67
2019-05-13T18:13:42.986Z,25.77
2019-05-13T18:19:02.258Z,21.82
2019-05-13T18:24:23.951Z,23.22
2019-05-13T18:29:45.844Z,23.90
2019-05-13T18:35:07.797Z,23.32
2019-05-13T18:40:31.344Z,22.40
2019-05-13T18:45:52.926Z,21.75
2019-05-13T18:51:14.667Z,23.47
2019-05-13T18:56:36.089Z,23.75
2019-05-13T19:01:57.688Z,20.30
2019-05-13T19:07:21.375Z,21.62
2019-05-13T19:12:42.960Z,23.32
2019-05-13T19:18:05.116Z,22.07
2019-05-13T19:23:26.557Z,20.27
2019-05-13T19:28:48.555Z,21.17
2019-05-13T19:34:12.592Z,21.97
2019-05-13T19:39:34.612Z,19.30
2019-05-13T19:44:56.352Z,21.33
2019-05-13T19:50:18.372Z,25.43
2019-05-13T19:55:41.442Z,24.75
2019-05-13T20:01:03.710Z,23.22
2019-05-13T20:06:25.236Z,20.55
2019-05-13T20:11:46.984Z,20.60
2019-05-13T20:17:09.147Z,20.88
2019-05-13T20:22:31.431Z,17.90
2019-05-13T20:27:53.087Z,17.40
2019-05-13T20:33:14.446Z,20.25
2019-05-13T20:38:35.885Z,18.55
2019-05-13T20:43:57.663Z,20.70
2019-05-13T20:49:21.717Z,22.95
2019-05-13T20:54:43.275Z,23.77
2019-05-13T21:00:05.118Z,25.12
2019-05-13T21:05:26.981Z,24.55
2019-05-13T21:10:48.612Z,23.05
2019-05-13T21:16:11.417Z,21.65
2019-05-13T21:21:33.645Z,25.72
2019-05-13T21:26:55.690Z,23.65
2019-05-13T21:32:17.819Z,32.23
2019-05-13T21:37:39.589Z,26.27
2019-05-13T21:43:01.457Z,24.82
2019-05-13T21:48:22.631Z,21.75
2019-05-13T21:53:44.703Z,20.60
2019-05-13T21:59:06.452Z,19.23
2019-05-13T22:04:28.221Z,18.35
2019-05-13T22:09:51.345Z,13.55
2019-05-13T22:15:13.226Z,13.40
2019-05-13T22:20:47.342Z,11.15
2019-05-13T22:26:01.373Z,10.28
2019-05-13T22:31:22.351Z,6.78
2019-05-13T22:36:43.990Z,10.40
2019-05-13T22:42:05.461Z,12.28
2019-05-13T22:47:27.390Z,14.07
2019-05-13T22:52:48.614Z,9.43
2019-05-13T22:58:10.339Z,9.00
2019-05-13T23:03:32.456Z,7.22
2019-05-13T23:08:53.667Z,8.65
2019-05-13T23:14:15.077Z,6.95
2019-05-13T23:19:36.917Z,8.63
2019-05-13T23:24:58.716Z,7.42
2019-05-13T23:30:20.545Z,8.68
2019-05-13T23:35:42.040Z,8.10
2019-05-13T23:41:03.880Z,12.37
2019-05-13T23:46:25.305Z,13.32
2019-05-13T23:51:47.147Z,12.53
2019-05-13T23:57:08.624Z,15.50
